sensor_id;sensor_type;location;lat;lon;timestamp;pressure;altitude;pressure_sealevel;temperature;humidity
4022;BME280;2025;48.260;16.432;2023-05-07T00:02:07;99913.63;;;12.31;91.14
4022;BME280;2025;48.260;16.432;2023-05-07T00:04:35;99916.06;;;12.33;91.05
4022;BME280;2025;48.260;16.432;2023-05-07T00:07:04;99918.25;;;12.29;91.13
4022;BME280;2025;48.260;16.432;2023-05-07T00:09:31;99913.94;;;12.28;91.06
4022;BME280;2025;48.260;16.432;2023-05-07T00:11:58;99917.03;;;12.17;90.81
4022;BME280;2025;48.260;16.432;2023-05-07T00:14:25;99915.97;;;12.03;90.59
4022;BME280;2025;48.260;16.432;2023-05-07T00:16:52;99918.66;;;11.87;90.21
4022;BME280;2025;48.260;16.432;2023-05-07T00:19:20;99918.75;;;11.70;90.47
4022;BME280;2025;48.260;16.432;2023-05-07T00:21:47;99903.25;;;11.67;90.81
4022;BME280;2025;48.260;16.432;2023-05-07T00:24:14;99910.88;;;11.62;90.99
4022;BME280;2025;48.260;16.432;2023-05-07T00:26:41;99917.47;;;11.58;91.47
4022;BME280;2025;48.260;16.432;2023-05-07T00:29:07;99908.13;;;11.47;91.54
4022;BME280;2025;48.260;16.432;2023-05-07T00:31:34;99918.84;;;11.46;91.74
4022;BME280;2025;48.260;16.432;2023-05-07T00:34:01;99912.38;;;11.56;91.31
4022;BME280;2025;48.260;16.432;2023-05-07T00:36:30;99915.47;;;11.68;91.73
4022;BME280;2025;48.260;16.432;2023-05-07T00:38:59;99910.25;;;11.83;91.75
4022;BME280;2025;48.260;16.432;2023-05-07T00:41:27;99899.69;;;11.91;91.85
4022;BME280;2025;48.260;16.432;2023-05-07T00:43:54;99902.72;;;11.72;91.05
4022;BME280;2025;48.260;16.432;2023-05-07T00:46:21;99914.00;;;11.57;90.56
4022;BME280;2025;48.260;16.432;2023-05-07T00:48:49;99916.19;;;11.54;90.79
4022;BME280;2025;48.260;16.432;2023-05-07T00:51:17;99917.69;;;11.48;91.28
4022;BME280;2025;48.260;16.432;2023-05-07T00:53:46;99913.84;;;11.59;91.35
4022;BME280;2025;48.260;16.432;2023-05-07T00:56:13;99920.25;;;11.65;91.55
4022;BME280;2025;48.260;16.432;2023-05-07T00:58:41;99918.78;;;11.62;91.76
4022;BME280;2025;48.260;16.432;2023-05-07T01:01:08;99911.16;;;11.67;91.80
4022;BME280;2025;48.260;16.432;2023-05-07T01:03:35;99911.00;;;11.69;91.84
4022;BME280;2025;48.260;16.432;2023-05-07T01:06:03;99911.94;;;11.76;91.63
4022;BME280;2025;48.260;16.432;2023-05-07T01:08:30;99913.63;;;11.69;91.41
4022;BME280;2025;48.260;16.432;2023-05-07T01:11:01;99911.03;;;11.60;91.28
4022;BME280;2025;48.260;16.432;2023-05-07T01:13:29;99908.38;;;11.69;91.26
4022;BME280;2025;48.260;16.432;2023-05-07T01:15:56;99909.97;;;11.78;91.21
4022;BME280;2025;48.260;16.432;2023-05-07T01:18:23;99915.78;;;11.65;91.28
4022;BME280;2025;48.260;16.432;2023-05-07T01:20:51;99919.06;;;11.67;91.14
4022;BME280;2025;48.260;16.432;2023-05-07T01:23:20;99917.44;;;11.66;91.04
4022;BME280;2025;48.260;16.432;2023-05-07T01:25:51;99917.06;;;11.77;90.88
4022;BME280;2025;48.260;16.432;2023-05-07T01:28:18;99925.13;;;11.84;90.50
4022;BME280;2025;48.260;16.432;2023-05-07T01:30:48;99920.03;;;11.74;90.22
4022;BME280;2025;48.260;16.432;2023-05-07T01:33:19;99924.47;;;11.82;90.33
4022;BME280;2025;48.260;16.432;2023-05-07T01:35:49;99924.78;;;11.87;90.09
4022;BME280;2025;48.260;16.432;2023-05-07T01:38:17;99920.16;;;11.81;89.85
4022;BME280;2025;48.260;16.432;2023-05-07T01:40:46;99923.25;;;11.93;89.66
4022;BME280;2025;48.260;16.432;2023-05-07T01:43:13;99923.47;;;11.91;89.57
4022;BME280;2025;48.260;16.432;2023-05-07T01:45:41;99931.47;;;11.98;89.66
4022;BME280;2025;48.260;16.432;2023-05-07T01:48:10;99926.69;;;12.01;89.18
4022;BME280;2025;48.260;16.432;2023-05-07T01:50:38;99934.13;;;11.98;89.31
4022;BME280;2025;48.260;16.432;2023-05-07T01:53:05;99921.88;;;12.05;89.14
4022;BME280;2025;48.260;16.432;2023-05-07T01:55:32;99918.13;;;11.99;88.98
4022;BME280;2025;48.260;16.432;2023-05-07T01:58:01;99924.69;;;12.04;88.80
4022;BME280;2025;48.260;16.432;2023-05-07T02:00:28;99933.50;;;11.96;89.31
4022;BME280;2025;48.260;16.432;2023-05-07T02:02:55;99926.38;;;11.96;89.14
4022;BME280;2025;48.260;16.432;2023-05-07T02:05:22;99927.50;;;12.02;88.89
4022;BME280;2025;48.260;16.432;2023-05-07T02:07:49;99931.44;;;12.06;88.71
4022;BME280;2025;48.260;16.432;2023-05-07T02:10:16;99924.31;;;12.15;88.08
4022;BME280;2025;48.260;16.432;2023-05-07T02:12:43;99927.78;;;12.07;88.57
4022;BME280;2025;48.260;16.432;2023-05-07T02:15:11;99932.25;;;12.07;88.12
4022;BME280;2025;48.260;16.432;2023-05-07T02:17:58;99937.41;;;12.00;88.15
4022;BME280;2025;48.260;16.432;2023-05-07T02:20:26;99940.25;;;11.98;87.99
4022;BME280;2025;48.260;16.432;2023-05-07T02:22:53;99937.75;;;11.97;87.91
4022;BME280;2025;48.260;16.432;2023-05-07T02:25:20;99937.78;;;11.89;88.17
4022;BME280;2025;48.260;16.432;2023-05-07T02:27:47;99938.28;;;11.92;87.93
4022;BME280;2025;48.260;16.432;2023-05-07T02:30:16;99942.41;;;11.87;88.21
4022;BME280;2025;48.260;16.432;2023-05-07T02:32:43;99941.94;;;11.91;88.07
4022;BME280;2025;48.260;16.432;2023-05-07T02:35:10;99937.97;;;11.87;88.13
4022;BME280;2025;48.260;16.432;2023-05-07T02:37:37;99940.75;;;11.86;87.84
4022;BME280;2025;48.260;16.432;2023-05-07T02:40:05;99940.09;;;11.84;87.98
4022;BME280;2025;48.260;16.432;2023-05-07T02:42:32;99945.56;;;11.82;88.00
4022;BME280;2025;48.260;16.432;2023-05-07T02:44:59;99943.41;;;11.86;87.74
4022;BME280;2025;48.260;16.432;2023-05-07T02:47:27;99939.28;;;11.91;87.58
4022;BME280;2025;48.260;16.432;2023-05-07T02:49:55;99937.66;;;11.82;87.66
4022;BME280;2025;48.260;16.432;2023-05-07T02:52:22;99939.66;;;11.80;87.84
4022;BME280;2025;48.260;16.432;2023-05-07T02:54:49;99943.13;;;11.72;88.12
4022;BME280;2025;48.260;16.432;2023-05-07T02:57:16;99948.59;;;11.63;88.18
4022;BME280;2025;48.260;16.432;2023-05-07T02:59:43;99951.75;;;11.66;88.03
4022;BME280;2025;48.260;16.432;2023-05-07T03:02:09;99942.56;;;11.54;88.25
4022;BME280;2025;48.260;16.432;2023-05-07T03:04:40;99951.00;;;11.49;88.21
4022;BME280;2025;48.260;16.432;2023-05-07T03:07:07;99948.00;;;11.44;88.51
4022;BME280;2025;48.260;16.432;2023-05-07T03:09:34;99951.31;;;11.46;88.47
4022;BME280;2025;48.260;16.432;2023-05-07T03:12:01;99959.41;;;11.36;88.66
4022;BME280;2025;48.260;16.432;2023-05-07T03:14:28;99958.75;;;11.43;88.68
4022;BME280;2025;48.260;16.432;2023-05-07T03:16:55;99968.28;;;11.44;88.52
4022;BME280;2025;48.260;16.432;2023-05-07T03:19:22;99960.59;;;11.34;88.54
4022;BME280;2025;48.260;16.432;2023-05-07T03:21:51;99970.97;;;11.27;88.86
4022;BME280;2025;48.260;16.432;2023-05-07T03:24:17;99972.63;;;11.28;88.90
4022;BME280;2025;48.260;16.432;2023-05-07T03:26:45;99975.44;;;11.27;89.12
4022;BME280;2025;48.260;16.432;2023-05-07T03:29:12;99978.06;;;11.27;89.18
4022;BME280;2025;48.260;16.432;2023-05-07T03:31:38;99978.53;;;11.30;89.11
4022;BME280;2025;48.260;16.432;2023-05-07T03:34:05;99979.88;;;11.26;89.17
4022;BME280;2025;48.260;16.432;2023-05-07T03:36:32;99978.53;;;11.38;88.95
4022;BME280;2025;48.260;16.432;2023-05-07T03:39:01;99980.50;;;11.45;88.59
4022;BME280;2025;48.260;16.432;2023-05-07T03:41:28;99977.69;;;11.46;88.34
4022;BME280;2025;48.260;16.432;2023-05-07T03:43:55;99972.41;;;11.46;88.28
4022;BME280;2025;48.260;16.432;2023-05-07T03:46:21;99982.13;;;11.46;88.59
4022;BME280;2025;48.260;16.432;2023-05-07T03:48:51;99992.03;;;11.44;88.57
4022;BME280;2025;48.260;16.432;2023-05-07T03:51:18;99992.69;;;11.46;88.47
4022;BME280;2025;48.260;16.432;2023-05-07T03:53:45;99990.34;;;11.51;88.22
4022;BME280;2025;48.260;16.432;2023-05-07T03:56:13;99992.03;;;11.52;88.04
4022;BME280;2025;48.260;16.432;2023-05-07T03:58:40;99999.44;;;11.48;88.14
4022;BME280;2025;48.260;16.432;2023-05-07T04:01:07;99996.84;;;11.40;88.52
4022;BME280;2025;48.260;16.432;2023-05-07T04:03:34;100002.06;;;11.48;88.15
4022;BME280;2025;48.260;16.432;2023-05-07T04:06:01;100004.38;;;11.51;87.87
4022;BME280;2025;48.260;16.432;2023-05-07T04:08:28;99996.59;;;11.58;87.56
4022;BME280;2025;48.260;16.432;2023-05-07T04:10:55;99996.59;;;11.58;87.57
4022;BME280;2025;48.260;16.432;2023-05-07T04:13:23;99999.44;;;11.56;87.84
4022;BME280;2025;48.260;16.432;2023-05-07T04:15:50;99994.66;;;11.52;87.84
4022;BME280;2025;48.260;16.432;2023-05-07T04:18:17;100000.91;;;11.51;88.00
4022;BME280;2025;48.260;16.432;2023-05-07T04:20:45;100007.84;;;11.52;87.98
4022;BME280;2025;48.260;16.432;2023-05-07T04:23:12;100007.34;;;11.48;88.56
4022;BME280;2025;48.260;16.432;2023-05-07T04:25:39;100005.16;;;11.68;87.43
4022;BME280;2025;48.260;16.432;2023-05-07T04:28:06;100015.88;;;11.67;87.65
4022;BME280;2025;48.260;16.432;2023-05-07T04:30:34;100026.56;;;11.73;87.27
4022;BME280;2025;48.260;16.432;2023-05-07T04:33:01;100025.25;;;11.77;87.59
4022;BME280;2025;48.260;16.432;2023-05-07T04:35:28;100027.03;;;11.85;86.77
4022;BME280;2025;48.260;16.432;2023-05-07T04:37:55;100031.47;;;11.85;87.16
4022;BME280;2025;48.260;16.432;2023-05-07T04:40:22;100029.66;;;11.93;86.51
4022;BME280;2025;48.260;16.432;2023-05-07T04:42:48;100042.81;;;12.01;86.78
4022;BME280;2025;48.260;16.432;2023-05-07T04:45:15;100037.38;;;12.03;86.27
4022;BME280;2025;48.260;16.432;2023-05-07T04:47:44;100047.44;;;11.99;86.61
4022;BME280;2025;48.260;16.432;2023-05-07T04:50:10;100045.91;;;12.13;86.02
4022;BME280;2025;48.260;16.432;2023-05-07T04:52:37;100050.38;;;12.13;85.96
4022;BME280;2025;48.260;16.432;2023-05-07T04:55:05;100055.78;;;12.19;85.34
4022;BME280;2025;48.260;16.432;2023-05-07T04:57:32;100053.28;;;12.26;85.24
4022;BME280;2025;48.260;16.432;2023-05-07T04:59:59;100059.84;;;12.30;85.51
4022;BME280;2025;48.260;16.432;2023-05-07T05:02:26;100059.47;;;12.41;85.17
4022;BME280;2025;48.260;16.432;2023-05-07T05:04:55;100064.72;;;12.50;84.83
4022;BME280;2025;48.260;16.432;2023-05-07T05:07:21;100059.47;;;12.41;84.23
4022;BME280;2025;48.260;16.432;2023-05-07T05:09:48;100065.69;;;12.49;84.43
4022;BME280;2025;48.260;16.432;2023-05-07T05:12:15;100059.31;;;12.43;84.39
4022;BME280;2025;48.260;16.432;2023-05-07T05:14:42;100069.00;;;12.51;84.82
4022;BME280;2025;48.260;16.432;2023-05-07T05:17:09;100073.28;;;12.52;84.79
4022;BME280;2025;48.260;16.432;2023-05-07T05:19:36;100077.63;;;12.68;83.23
4022;BME280;2025;48.260;16.432;2023-05-07T05:22:04;100075.94;;;12.75;83.14
4022;BME280;2025;48.260;16.432;2023-05-07T05:24:31;100083.13;;;12.66;83.43
4022;BME280;2025;48.260;16.432;2023-05-07T05:26:58;100079.72;;;12.80;83.25
4022;BME280;2025;48.260;16.432;2023-05-07T05:29:26;100087.25;;;12.92;82.52
4022;BME280;2025;48.260;16.432;2023-05-07T05:31:53;100084.22;;;12.95;82.62
4022;BME280;2025;48.260;16.432;2023-05-07T05:34:20;100079.63;;;13.12;82.73
4022;BME280;2025;48.260;16.432;2023-05-07T05:36:47;100083.84;;;13.29;82.41
4022;BME280;2025;48.260;16.432;2023-05-07T05:39:16;100082.44;;;13.33;82.35
4022;BME280;2025;48.260;16.432;2023-05-07T05:41:43;100094.44;;;13.44;80.05
4022;BME280;2025;48.260;16.432;2023-05-07T05:44:10;100097.25;;;13.42;80.51
4022;BME280;2025;48.260;16.432;2023-05-07T05:46:37;100095.78;;;13.40;81.21
4022;BME280;2025;48.260;16.432;2023-05-07T05:49:04;100090.25;;;13.49;79.87
4022;BME280;2025;48.260;16.432;2023-05-07T05:51:31;100102.19;;;13.45;79.78
4022;BME280;2025;48.260;16.432;2023-05-07T05:53:57;100092.81;;;13.58;80.12
4022;BME280;2025;48.260;16.432;2023-05-07T05:56:26;100092.47;;;13.76;80.18
4022;BME280;2025;48.260;16.432;2023-05-07T05:58:53;100091.13;;;13.95;77.76
4022;BME280;2025;48.260;16.432;2023-05-07T06:01:20;100091.47;;;13.91;78.03
4022;BME280;2025;48.260;16.432;2023-05-07T06:03:47;100089.47;;;13.79;80.20
4022;BME280;2025;48.260;16.432;2023-05-07T06:06:14;100091.56;;;13.83;79.05
4022;BME280;2025;48.260;16.432;2023-05-07T06:08:41;100102.97;;;13.84;78.52
4022;BME280;2025;48.260;16.432;2023-05-07T06:11:08;100098.59;;;13.91;77.99
4022;BME280;2025;48.260;16.432;2023-05-07T06:13:44;100100.22;;;14.07;78.50
4022;BME280;2025;48.260;16.432;2023-05-07T06:16:11;100103.25;;;14.19;78.59
4022;BME280;2025;48.260;16.432;2023-05-07T06:18:38;100104.97;;;14.41;77.72
4022;BME280;2025;48.260;16.432;2023-05-07T06:21:05;100109.69;;;14.46;77.30
4022;BME280;2025;48.260;16.432;2023-05-07T06:23:32;100110.50;;;14.61;75.37
4022;BME280;2025;48.260;16.432;2023-05-07T06:25:59;100116.78;;;14.75;74.48
4022;BME280;2025;48.260;16.432;2023-05-07T06:28:26;100111.63;;;14.88;74.83
4022;BME280;2025;48.260;16.432;2023-05-07T06:30:54;100116.19;;;14.94;72.53
4022;BME280;2025;48.260;16.432;2023-05-07T06:33:21;100110.66;;;14.96;74.62
4022;BME280;2025;48.260;16.432;2023-05-07T06:35:48;100116.91;;;14.88;74.15
4022;BME280;2025;48.260;16.432;2023-05-07T06:38:15;100111.69;;;14.73;73.62
4022;BME280;2025;48.260;16.432;2023-05-07T06:40:42;100111.13;;;14.78;72.08
4022;BME280;2025;48.260;16.432;2023-05-07T06:43:09;100121.03;;;14.91;73.18
4022;BME280;2025;48.260;16.432;2023-05-07T06:45:36;100118.91;;;15.01;72.19
4022;BME280;2025;48.260;16.432;2023-05-07T06:48:05;100115.34;;;14.94;73.08
4022;BME280;2025;48.260;16.432;2023-05-07T06:50:32;100126.16;;;14.92;74.41
4022;BME280;2025;48.260;16.432;2023-05-07T06:52:59;100126.13;;;14.71;73.83
4022;BME280;2025;48.260;16.432;2023-05-07T06:55:26;100124.94;;;14.73;72.16
4022;BME280;2025;48.260;16.432;2023-05-07T06:57:53;100128.56;;;14.72;72.18
4022;BME280;2025;48.260;16.432;2023-05-07T07:00:20;100138.03;;;14.60;72.80
4022;BME280;2025;48.260;16.432;2023-05-07T07:02:47;100131.97;;;14.51;73.07
4022;BME280;2025;48.260;16.432;2023-05-07T07:05:15;100137.09;;;14.53;72.41
4022;BME280;2025;48.260;16.432;2023-05-07T07:07:42;100139.66;;;14.61;73.24
4022;BME280;2025;48.260;16.432;2023-05-07T07:10:09;100144.59;;;14.64;73.75
4022;BME280;2025;48.260;16.432;2023-05-07T07:12:36;100142.09;;;14.78;74.34
4022;BME280;2025;48.260;16.432;2023-05-07T07:15:04;100143.03;;;15.06;74.06
4022;BME280;2025;48.260;16.432;2023-05-07T07:17:31;100147.81;;;15.39;70.35
4022;BME280;2025;48.260;16.432;2023-05-07T07:19:58;100148.28;;;15.49;67.87
4022;BME280;2025;48.260;16.432;2023-05-07T07:22:26;100140.88;;;15.66;68.50
4022;BME280;2025;48.260;16.432;2023-05-07T07:24:53;100150.13;;;15.70;66.08
4022;BME280;2025;48.260;16.432;2023-05-07T07:27:20;100147.19;;;15.65;66.88
4022;BME280;2025;48.260;16.432;2023-05-07T07:29:47;100147.63;;;15.90;68.03
4022;BME280;2025;48.260;16.432;2023-05-07T07:32:14;100146.06;;;16.02;65.73
4022;BME280;2025;48.260;16.432;2023-05-07T07:34:41;100150.34;;;16.04;66.42
4022;BME280;2025;48.260;16.432;2023-05-07T07:39:49;100154.03;;;15.74;64.50
4022;BME280;2025;48.260;16.432;2023-05-07T07:42:16;100158.97;;;15.77;65.57
4022;BME280;2025;48.260;16.432;2023-05-07T07:44:43;100157.38;;;15.83;65.03
4022;BME280;2025;48.260;16.432;2023-05-07T07:47:10;100158.75;;;16.07;63.15
4022;BME280;2025;48.260;16.432;2023-05-07T07:49:37;100152.28;;;16.16;61.78
4022;BME280;2025;48.260;16.432;2023-05-07T07:52:04;100155.19;;;16.28;64.86
4022;BME280;2025;48.260;16.432;2023-05-07T07:54:31;100157.53;;;16.44;62.25
4022;BME280;2025;48.260;16.432;2023-05-07T07:56:59;100156.44;;;16.32;62.68
4022;BME280;2025;48.260;16.432;2023-05-07T07:59:27;100165.97;;;16.20;64.88
4022;BME280;2025;48.260;16.432;2023-05-07T08:01:53;100159.44;;;16.16;64.20
4022;BME280;2025;48.260;16.432;2023-05-07T08:04:22;100162.75;;;15.96;63.50
4022;BME280;2025;48.260;16.432;2023-05-07T08:06:49;100157.38;;;15.83;65.10
4022;BME280;2025;48.260;16.432;2023-05-07T08:09:16;100165.09;;;15.78;63.94
4022;BME280;2025;48.260;16.432;2023-05-07T08:11:43;100168.38;;;15.80;63.75
4022;BME280;2025;48.260;16.432;2023-05-07T08:14:11;100167.16;;;15.83;63.81
4022;BME280;2025;48.260;16.432;2023-05-07T08:16:38;100174.38;;;15.89;64.62
4022;BME280;2025;48.260;16.432;2023-05-07T08:19:05;100164.84;;;16.01;64.55
4022;BME280;2025;48.260;16.432;2023-05-07T08:21:32;100175.16;;;16.17;63.96
4022;BME280;2025;48.260;16.432;2023-05-07T08:23:59;100176.84;;;16.25;63.50
4022;BME280;2025;48.260;16.432;2023-05-07T08:26:26;100173.03;;;16.34;62.47
4022;BME280;2025;48.260;16.432;2023-05-07T08:28:53;100171.00;;;16.36;61.44
4022;BME280;2025;48.260;16.432;2023-05-07T08:31:21;100172.72;;;16.57;59.17
4022;BME280;2025;48.260;16.432;2023-05-07T08:33:50;100186.19;;;16.56;59.96
4022;BME280;2025;48.260;16.432;2023-05-07T08:36:17;100178.22;;;16.56;60.02
4022;BME280;2025;48.260;16.432;2023-05-07T08:38:44;100181.91;;;16.61;62.71
4022;BME280;2025;48.260;16.432;2023-05-07T08:41:11;100170.50;;;16.68;60.90
4022;BME280;2025;48.260;16.432;2023-05-07T08:43:40;100170.31;;;16.76;59.36
4022;BME280;2025;48.260;16.432;2023-05-07T08:46:09;100179.28;;;16.68;58.80
4022;BME280;2025;48.260;16.432;2023-05-07T08:48:38;100184.44;;;16.70;60.88
4022;BME280;2025;48.260;16.432;2023-05-07T08:51:05;100177.78;;;16.52;62.70
4022;BME280;2025;48.260;16.432;2023-05-07T08:53:33;100175.91;;;16.81;61.79
4022;BME280;2025;48.260;16.432;2023-05-07T08:56:00;100180.50;;;17.27;62.76
4022;BME280;2025;48.260;16.432;2023-05-07T08:58:27;100178.47;;;17.36;59.83
4022;BME280;2025;48.260;16.432;2023-05-07T09:00:54;100173.53;;;17.19;59.35
4022;BME280;2025;48.260;16.432;2023-05-07T09:03:21;100173.31;;;17.08;62.22
4022;BME280;2025;48.260;16.432;2023-05-07T09:05:50;100172.78;;;16.77;64.22
4022;BME280;2025;48.260;16.432;2023-05-07T09:08:17;100192.94;;;16.93;61.79
4022;BME280;2025;48.260;16.432;2023-05-07T09:10:44;100187.94;;;16.77;62.46
4022;BME280;2025;48.260;16.432;2023-05-07T09:13:11;100176.59;;;16.61;61.76
4022;BME280;2025;48.260;16.432;2023-05-07T09:15:39;100181.56;;;16.78;63.11
4022;BME280;2025;48.260;16.432;2023-05-07T09:18:06;100183.28;;;16.85;62.75
4022;BME280;2025;48.260;16.432;2023-05-07T09:20:33;100183.75;;;17.09;61.13
4022;BME280;2025;48.260;16.432;2023-05-07T09:23:02;100173.56;;;17.26;59.12
4022;BME280;2025;48.260;16.432;2023-05-07T09:25:31;100177.63;;;17.22;60.33
4022;BME280;2025;48.260;16.432;2023-05-07T09:27:59;100178.06;;;17.52;60.00
4022;BME280;2025;48.260;16.432;2023-05-07T09:30:27;100173.38;;;17.87;62.55
4022;BME280;2025;48.260;16.432;2023-05-07T09:32:55;100167.66;;;17.97;62.43
4022;BME280;2025;48.260;16.432;2023-05-07T09:35:22;100160.81;;;18.28;60.39
4022;BME280;2025;48.260;16.432;2023-05-07T09:37:50;100161.91;;;18.59;56.74
4022;BME280;2025;48.260;16.432;2023-05-07T09:40:24;100152.69;;;18.54;54.82
4022;BME280;2025;48.260;16.432;2023-05-07T09:42:53;100157.84;;;18.49;54.91
4022;BME280;2025;48.260;16.432;2023-05-07T09:45:23;100156.78;;;18.57;54.80
4022;BME280;2025;48.260;16.432;2023-05-07T09:47:54;100148.41;;;18.53;53.70
4022;BME280;2025;48.260;16.432;2023-05-07T09:50:26;100158.94;;;18.28;54.00
4022;BME280;2025;48.260;16.432;2023-05-07T09:52:54;100157.91;;;18.36;55.07
4022;BME280;2025;48.260;16.432;2023-05-07T09:55:23;100162.41;;;18.42;56.42
4022;BME280;2025;48.260;16.432;2023-05-07T09:57:51;100162.78;;;18.46;57.40
4022;BME280;2025;48.260;16.432;2023-05-07T10:00:19;100163.31;;;18.68;55.41
4022;BME280;2025;48.260;16.432;2023-05-07T10:02:48;100161.03;;;18.78;58.88
4022;BME280;2025;48.260;16.432;2023-05-07T10:05:17;100159.75;;;18.87;57.37
4022;BME280;2025;48.260;16.432;2023-05-07T10:07:45;100161.09;;;18.65;53.94
4022;BME280;2025;48.260;16.432;2023-05-07T10:10:12;100163.16;;;18.63;55.19
4022;BME280;2025;48.260;16.432;2023-05-07T10:12:42;100166.50;;;18.45;58.75
4022;BME280;2025;48.260;16.432;2023-05-07T10:15:09;100155.47;;;18.35;53.98
4022;BME280;2025;48.260;16.432;2023-05-07T10:17:38;100156.09;;;18.30;55.51
4022;BME280;2025;48.260;16.432;2023-05-07T10:20:06;100163.03;;;18.38;56.49
4022;BME280;2025;48.260;16.432;2023-05-07T10:22:37;100160.09;;;18.46;56.89
4022;BME280;2025;48.260;16.432;2023-05-07T10:25:06;100164.25;;;18.93;53.99
4022;BME280;2025;48.260;16.432;2023-05-07T10:27:36;100161.75;;;19.55;51.90
4022;BME280;2025;48.260;16.432;2023-05-07T10:30:14;100163.19;;;19.83;51.19
4022;BME280;2025;48.260;16.432;2023-05-07T10:32:47;100154.31;;;20.08;52.11
4022;BME280;2025;48.260;16.432;2023-05-07T10:35:16;100153.19;;;20.34;49.36
4022;BME280;2025;48.260;16.432;2023-05-07T10:37:44;100154.50;;;21.10;48.67
4022;BME280;2025;48.260;16.432;2023-05-07T10:40:12;100152.06;;;20.78;47.04
4022;BME280;2025;48.260;16.432;2023-05-07T10:42:53;100156.47;;;20.36;49.33
4022;BME280;2025;48.260;16.432;2023-05-07T10:45:23;100159.00;;;20.49;48.33
4022;BME280;2025;48.260;16.432;2023-05-07T10:48:07;100151.41;;;20.65;49.08
4022;BME280;2025;48.260;16.432;2023-05-07T10:50:34;100148.00;;;20.20;47.77
4022;BME280;2025;48.260;16.432;2023-05-07T10:53:20;100159.53;;;19.21;50.59
4022;BME280;2025;48.260;16.432;2023-05-07T10:55:50;100164.56;;;19.10;51.24
4022;BME280;2025;48.260;16.432;2023-05-07T10:58:24;100160.41;;;19.14;51.26
4022;BME280;2025;48.260;16.432;2023-05-07T11:00:57;100158.00;;;19.38;52.26
4022;BME280;2025;48.260;16.432;2023-05-07T11:03:25;100150.59;;;19.65;51.06
4022;BME280;2025;48.260;16.432;2023-05-07T11:06:11;100147.03;;;20.33;54.42
4022;BME280;2025;48.260;16.432;2023-05-07T11:08:52;100147.50;;;21.09;50.46
4022;BME280;2025;48.260;16.432;2023-05-07T11:11:45;100161.91;;;21.38;47.46
4022;BME280;2025;48.260;16.432;2023-05-07T11:14:13;100160.66;;;21.41;45.95
4022;BME280;2025;48.260;16.432;2023-05-07T11:16:43;100149.53;;;21.37;44.43
4022;BME280;2025;48.260;16.432;2023-05-07T11:19:10;100144.66;;;21.34;45.43
4022;BME280;2025;48.260;16.432;2023-05-07T11:21:38;100135.59;;;21.35;46.87
4022;BME280;2025;48.260;16.432;2023-05-07T11:24:06;100140.63;;;21.43;46.33
4022;BME280;2025;48.260;16.432;2023-05-07T11:26:44;100140.28;;;21.40;45.73
4022;BME280;2025;48.260;16.432;2023-05-07T11:29:13;100138.88;;;21.07;47.23
4022;BME280;2025;48.260;16.432;2023-05-07T11:31:42;100138.50;;;20.61;49.75
4022;BME280;2025;48.260;16.432;2023-05-07T11:34:09;100127.56;;;20.93;52.89
4022;BME280;2025;48.260;16.432;2023-05-07T11:36:42;100131.25;;;21.22;46.97
4022;BME280;2025;48.260;16.432;2023-05-07T11:39:26;100131.25;;;21.34;48.98
4022;BME280;2025;48.260;16.432;2023-05-07T11:41:53;100132.72;;;21.18;46.99
4022;BME280;2025;48.260;16.432;2023-05-07T11:44:20;100138.53;;;21.03;47.16
4022;BME280;2025;48.260;16.432;2023-05-07T11:46:48;100137.09;;;21.31;47.18
4022;BME280;2025;48.260;16.432;2023-05-07T11:49:16;100139.94;;;21.60;48.78
4022;BME280;2025;48.260;16.432;2023-05-07T11:51:43;100141.31;;;21.74;46.99
4022;BME280;2025;48.260;16.432;2023-05-07T11:54:15;100130.38;;;21.76;47.46
4022;BME280;2025;48.260;16.432;2023-05-07T11:56:44;100143.69;;;21.17;45.51
4022;BME280;2025;48.260;16.432;2023-05-07T11:59:17;100141.78;;;20.94;47.31
4022;BME280;2025;48.260;16.432;2023-05-07T12:01:45;100140.75;;;20.76;47.09
4022;BME280;2025;48.260;16.432;2023-05-07T12:04:16;100136.53;;;20.50;47.97
4022;BME280;2025;48.260;16.432;2023-05-07T12:06:45;100142.56;;;20.27;50.83
4022;BME280;2025;48.260;16.432;2023-05-07T12:09:12;100145.31;;;19.84;48.59
4022;BME280;2025;48.260;16.432;2023-05-07T12:11:40;100144.03;;;19.61;50.87
4022;BME280;2025;48.260;16.432;2023-05-07T12:14:11;100144.50;;;20.02;52.07
4022;BME280;2025;48.260;16.432;2023-05-07T12:16:39;100149.78;;;20.63;49.63
4022;BME280;2025;48.260;16.432;2023-05-07T12:19:07;100153.78;;;21.45;55.78
4022;BME280;2025;48.260;16.432;2023-05-07T12:21:39;100157.41;;;21.74;46.21
4022;BME280;2025;48.260;16.432;2023-05-07T12:24:07;100152.81;;;21.39;45.28
4022;BME280;2025;48.260;16.432;2023-05-07T12:26:37;100145.72;;;20.61;48.29
4022;BME280;2025;48.260;16.432;2023-05-07T12:29:06;100141.03;;;20.38;49.00
4022;BME280;2025;48.260;16.432;2023-05-07T12:31:33;100140.72;;;20.28;49.23
4022;BME280;2025;48.260;16.432;2023-05-07T12:34:00;100147.41;;;20.00;48.40
4022;BME280;2025;48.260;16.432;2023-05-07T12:36:36;100141.63;;;20.03;49.79
4022;BME280;2025;48.260;16.432;2023-05-07T12:39:05;100140.22;;;20.37;48.93
4022;BME280;2025;48.260;16.432;2023-05-07T12:41:36;100145.66;;;21.10;51.53
4022;BME280;2025;48.260;16.432;2023-05-07T12:44:18;100134.94;;;21.10;44.04
4022;BME280;2025;48.260;16.432;2023-05-07T12:46:46;100124.16;;;20.56;44.53
4022;BME280;2025;48.260;16.432;2023-05-07T12:49:13;100129.28;;;20.20;47.48
4022;BME280;2025;48.260;16.432;2023-05-07T12:51:40;100123.25;;;20.62;48.62
4022;BME280;2025;48.260;16.432;2023-05-07T12:54:10;100119.03;;;20.84;45.39
4022;BME280;2025;48.260;16.432;2023-05-07T12:56:37;100120.25;;;21.42;44.81
4022;BME280;2025;48.260;16.432;2023-05-07T12:59:04;100123.81;;;22.07;44.87
4022;BME280;2025;48.260;16.432;2023-05-07T13:01:31;100118.88;;;22.39;48.51
4022;BME280;2025;48.260;16.432;2023-05-07T13:04:01;100113.72;;;22.78;46.16
4022;BME280;2025;48.260;16.432;2023-05-07T13:06:30;100110.78;;;22.80;40.55
4022;BME280;2025;48.260;16.432;2023-05-07T13:08:57;100102.03;;;22.03;41.35
4022;BME280;2025;48.260;16.432;2023-05-07T13:11:26;100090.97;;;21.76;43.21